Malpensa International Airport LIMC

Flugplatz Daten

Name: Malpensa International Airport

Ident: LIMC

Lat: 45,63059998

Long: 8,728110313

Platzhöhe: 768 ft

IataCode: MXP

City: Milan

Homepage: http://www.sea-aeroportimilano.it/en/malpensa/index.phtml

Metar

2022/08/13 16:50
LIMC 131650Z 24008KT 190V260 CAVOK 28/11 Q1012 NOSIG

Taf

2022/08/13 12:00
TAF LIMC 131100Z 1312/1418 VRB06KT CAVOK
BECMG 1410/1412 20010KT= TAF LIME 131100Z 1312/1412 21010KT CAVOK
BECMG 1316/1318 VRB05KT
Gewünschte Webcam nicht vorhanden? Dann fügen Sie eine hinzu. Sie wird dann so schnell wie möglich freigeschaltet
Url: Title: